Time,TemperatureF,DewpointF,PressureIn,WindDirection,WindDirectionDegrees,WindSpeedMPH,WindSpeedGustMPH,Humidity,HourlyPrecipIn,Conditions,Clouds,dailyrainin,SoftwareType,DateUTC
2013-05-04 00:02:00,68.0,68.0,29.71,WNW,298,9.0,14.0,100,0.48,,,-99.99,,2013-05-04 04:02:00,
2013-05-04 00:12:00,68.0,68.0,29.71,WNW,298,9.0,14.0,100,0.48,,,-99.99,,2013-05-04 04:12:00,
2013-05-04 00:22:00,68.0,68.0,29.71,West,280,8.0,11.0,100,0.48,,,-99.99,,2013-05-04 04:22:00,
2013-05-04 00:33:00,68.0,68.0,29.71,West,281,9.0,12.0,100,0.48,,,-99.99,,2013-05-04 04:33:00,
2013-05-04 00:42:00,68.0,68.0,29.71,West,281,9.0,12.0,100,0.48,,,-99.99,,2013-05-04 04:42:00,
2013-05-04 00:52:00,68.0,68.0,29.70,NW,304,5.0,9.0,100,0.48,,,-99.99,,2013-05-04 04:52:00,
2013-05-04 01:02:00,68.0,68.0,29.70,WNW,285,7.0,10.0,100,0.48,,,-99.99,,2013-05-04 05:02:00,
2013-05-04 01:12:00,68.0,68.0,29.69,WNW,295,7.0,10.0,100,0.48,,,-99.99,,2013-05-04 05:12:00,
2013-05-04 01:22:00,68.0,68.0,29.69,WNW,295,7.0,10.0,100,0.48,,,-99.99,,2013-05-04 05:22:00,
2013-05-04 01:32:00,69.0,69.0,29.69,NW,322,7.0,9.0,100,0.48,,,-99.99,,2013-05-04 05:32:00,
2013-05-04 01:43:00,69.0,69.0,29.69,NW,322,7.0,9.0,100,0.48,,,-99.99,,2013-05-04 05:43:00,
2013-05-04 01:52:00,69.0,69.0,29.69,WNW,294,6.0,9.0,100,0.48,,,-99.99,,2013-05-04 05:52:00,
2013-05-04 02:01:00,69.0,69.0,29.68,West,260,6.0,9.0,100,0.48,,,-99.99,,2013-05-04 06:01:00,
2013-05-04 02:11:00,69.0,69.0,29.68,West,274,8.0,10.0,100,0.48,,,-99.99,,2013-05-04 06:11:00,
2013-05-04 02:21:00,69.0,69.0,29.68,West,274,8.0,10.0,100,0.48,,,-99.99,,2013-05-04 06:21:00,
2013-05-04 02:32:00,69.0,69.0,29.67,WNW,298,7.0,9.0,100,0.48,,,-99.99,,2013-05-04 06:32:00,
2013-05-04 02:42:00,69.0,69.0,29.67,WNW,298,7.0,9.0,100,0.48,,,-99.99,,2013-05-04 06:42:00,
2013-05-04 02:52:00,69.0,69.0,29.67,West,280,10.0,14.0,100,0.48,,,-99.99,,2013-05-04 06:52:00,
2013-05-04 03:01:00,68.0,68.0,29.67,WNW,290,8.0,11.0,100,0.48,,,-99.99,,2013-05-04 07:01:00,
2013-05-04 03:11:00,68.0,68.0,29.67,West,266,8.0,11.0,100,0.48,,,-99.99,,2013-05-04 07:11:00,
2013-05-04 03:21:00,68.0,68.0,29.67,West,266,8.0,11.0,100,0.48,,,-99.99,,2013-05-04 07:21:00,
2013-05-04 03:32:00,68.0,68.0,29.66,West,269,9.0,12.0,100,0.48,,,-99.99,,2013-05-04 07:32:00,
2013-05-04 03:42:00,68.0,68.0,29.66,West,269,9.0,12.0,100,0.48,,,-99.99,,2013-05-04 07:42:00,
2013-05-04 03:52:00,68.0,68.0,29.67,WNW,283,8.0,12.0,100,0.48,,,-99.99,,2013-05-04 07:52:00,
2013-05-04 04:01:00,69.0,69.0,29.67,WNW,290,7.0,9.0,100,0.48,,,-99.99,,2013-05-04 08:01:00,
2013-05-04 04:11:00,69.0,69.0,29.67,WNW,290,7.0,9.0,100,0.48,,,-99.99,,2013-05-04 08:11:00,
2013-05-04 04:21:00,68.0,68.0,29.66,WNW,295,5.0,7.0,100,0.48,,,-99.99,,2013-05-04 08:21:00,
2013-05-04 04:32:00,69.0,69.0,29.66,West,274,6.0,8.0,100,0.48,,,-99.99,,2013-05-04 08:32:00,
2013-05-04 04:42:00,69.0,69.0,29.66,West,274,6.0,8.0,100,0.48,,,-99.99,,2013-05-04 08:42:00,
2013-05-04 04:52:00,69.0,69.0,29.66,West,274,5.0,7.0,100,0.48,,,-99.99,,2013-05-04 08:52:00,
2013-05-04 05:02:00,69.0,69.0,29.66,WNW,293,4.0,6.0,100,0.48,,,-99.99,,2013-05-04 09:02:00,
2013-05-04 05:11:00,69.0,69.0,29.66,WNW,293,4.0,6.0,100,0.48,,,-99.99,,2013-05-04 09:11:00,
2013-05-04 05:22:00,69.0,69.0,29.66,West,269,6.0,8.0,100,0.48,,,-99.99,,2013-05-04 09:22:00,
2013-05-04 05:32:00,68.0,68.0,29.67,WNW,284,5.0,8.0,100,0.48,,,-99.99,,2013-05-04 09:32:00,
2013-05-04 05:42:00,68.0,68.0,29.67,WNW,284,5.0,8.0,100,0.48,,,-99.99,,2013-05-04 09:42:00,
2013-05-04 05:53:00,68.0,68.0,29.67,WNW,285,4.0,6.0,100,0.48,,,-99.99,,2013-05-04 09:53:00,
2013-05-04 06:03:00,68.0,68.0,29.68,WNW,285,5.0,7.0,100,0.48,,,-99.99,,2013-05-04 10:03:00,
2013-05-04 06:12:00,68.0,68.0,29.68,WNW,285,5.0,7.0,100,0.48,,,-99.99,,2013-05-04 10:12:00,
2013-05-04 06:23:00,68.0,68.0,29.68,West,276,4.0,6.0,100,0.48,,,-99.99,,2013-05-04 10:23:00,
2013-05-04 06:33:00,68.0,68.0,29.68,West,270,6.0,8.0,100,0.48,,,-99.99,,2013-05-04 10:33:00,
2013-05-04 06:42:00,68.0,68.0,29.68,West,270,6.0,8.0,100,0.48,,,-99.99,,2013-05-04 10:42:00,
2013-05-04 06:53:00,68.0,68.0,29.68,West,273,6.0,7.0,100,0.48,,,-99.99,,2013-05-04 10:53:00,
2013-05-04 07:02:00,68.0,68.0,29.69,WNW,287,5.0,7.0,100,0.48,,,-99.99,,2013-05-04 11:02:00,
2013-05-04 07:11:00,68.0,68.0,29.69,WNW,287,5.0,7.0,100,0.48,,,-99.99,,2013-05-04 11:11:00,
2013-05-04 07:21:00,68.0,68.0,29.69,WNW,283,6.0,9.0,100,0.48,,,-99.99,,2013-05-04 11:21:00,
2013-05-04 07:32:00,68.0,68.0,29.70,WSW,249,7.0,11.0,100,0.48,,,-99.99,,2013-05-04 11:32:00,
2013-05-04 07:44:00,68.0,68.0,29.70,WSW,249,7.0,11.0,100,0.48,,,-99.99,,2013-05-04 11:44:00,
2013-05-04 08:03:00,68.0,68.0,29.71,West,263,7.0,10.0,100,0.48,,,-99.99,,2013-05-04 12:03:00,
2013-05-04 08:14:00,68.0,68.0,29.71,West,260,8.0,10.0,100,0.48,,,-99.99,,2013-05-04 12:14:00,
2013-05-04 08:30:00,68.0,68.0,29.72,WNW,291,8.0,10.0,100,0.48,,,-99.99,,2013-05-04 12:30:00,
2013-05-04 08:37:00,69.0,69.0,29.71,West,259,8.0,12.0,100,0.48,,,-99.99,,2013-05-04 12:37:00,
2013-05-04 08:42:00,69.0,69.0,29.71,West,259,8.0,12.0,100,0.48,,,-99.99,,2013-05-04 12:42:00,
2013-05-04 08:52:00,69.0,68.0,29.71,WSW,248,9.0,12.0,97,0.48,,,-99.99,,2013-05-04 12:52:00,
2013-05-04 09:01:00,69.0,67.0,29.71,West,263,10.0,12.0,93,0.48,,,-99.99,,2013-05-04 13:01:00,
2013-05-04 09:32:00,70.0,67.0,29.72,West,259,10.0,13.0,91,0.48,,,-99.99,,2013-05-04 13:32:00,
2013-05-04 09:42:00,70.0,67.0,29.72,West,259,10.0,13.0,91,0.48,,,-99.99,,2013-05-04 13:42:00,
2013-05-04 09:52:00,70.0,67.0,29.72,West,259,10.0,13.0,90,0.48,,,-99.99,,2013-05-04 13:52:00,
2013-05-04 10:02:00,70.0,65.0,29.72,WSW,257,11.0,15.0,84,0.48,,,-99.99,,2013-05-04 14:02:00,
2013-05-04 10:11:00,70.0,65.0,29.72,WSW,257,11.0,15.0,84,0.48,,,-99.99,,2013-05-04 14:11:00,
2013-05-04 10:21:00,71.0,65.0,29.73,West,260,12.0,15.0,82,0.48,,,-99.99,,2013-05-04 14:21:00,
2013-05-04 10:32:00,71.0,65.0,29.73,West,273,10.0,14.0,80,0.48,,,-99.99,,2013-05-04 14:32:00,
2013-05-04 10:42:00,71.0,65.0,29.73,West,273,10.0,14.0,80,0.48,,,-99.99,,2013-05-04 14:42:00,
2013-05-04 10:52:00,73.0,66.0,29.73,WNW,297,10.0,15.0,78,0.48,,,-99.99,,2013-05-04 14:52:00,
2013-05-04 11:02:00,73.0,66.0,29.74,West,262,11.0,17.0,78,0.48,,,-99.99,,2013-05-04 15:02:00,
2013-05-04 11:12:00,73.0,66.0,29.74,West,262,11.0,17.0,78,0.48,,,-99.99,,2013-05-04 15:12:00,
2013-05-04 11:22:00,73.0,65.0,29.74,WNW,288,13.0,18.0,75,0.48,,,-99.99,,2013-05-04 15:22:00,
2013-05-04 11:33:00,74.0,65.0,29.75,WNW,291,13.0,19.0,73,0.48,,,-99.99,,2013-05-04 15:33:00,
2013-05-04 11:43:00,74.0,65.0,29.75,WNW,291,13.0,19.0,73,0.48,,,-99.99,,2013-05-04 15:43:00,
2013-05-04 11:53:00,74.0,65.0,29.75,West,277,13.0,22.0,73,0.48,,,-99.99,,2013-05-04 15:53:00,
2013-05-04 12:03:00,75.0,65.0,29.74,WNW,287,13.0,19.0,70,0.48,,,-99.99,,2013-05-04 16:03:00,
2013-05-04 12:12:00,75.0,65.0,29.74,WNW,287,13.0,19.0,70,0.48,,,-99.99,,2013-05-04 16:12:00,
2013-05-04 12:22:00,75.0,66.0,29.74,WNW,290,8.0,12.0,73,0.48,,,-99.99,,2013-05-04 16:22:00,
2013-05-04 12:33:00,75.0,65.0,29.74,WSW,252,12.0,17.0,71,0.48,,,-99.99,,2013-05-04 16:33:00,
2013-05-04 12:42:00,75.0,65.0,29.74,WSW,252,12.0,17.0,71,0.48,,,-99.99,,2013-05-04 16:42:00,
2013-05-04 12:52:00,77.0,66.0,29.73,West,269,11.0,15.0,69,0.48,,,-99.99,,2013-05-04 16:52:00,
2013-05-04 13:02:00,77.0,66.0,29.72,WNW,297,10.0,14.0,68,0.48,,,-99.99,,2013-05-04 17:02:00,
2013-05-04 13:12:00,77.0,66.0,29.72,WNW,297,10.0,14.0,68,0.48,,,-99.99,,2013-05-04 17:12:00,
2013-05-04 13:22:00,77.0,65.0,29.72,WNW,285,10.0,15.0,66,0.48,,,-99.99,,2013-05-04 17:22:00,
2013-05-04 13:32:00,78.0,65.0,29.72,West,263,10.0,14.0,65,0.48,,,-99.99,,2013-05-04 17:32:00,
2013-05-04 13:42:00,78.0,65.0,29.72,West,263,10.0,14.0,65,0.48,,,-99.99,,2013-05-04 17:42:00,
2013-05-04 13:52:00,78.0,66.0,29.72,West,264,10.0,15.0,66,0.48,,,-99.99,,2013-05-04 17:52:00,
2013-05-04 14:01:00,78.0,64.0,29.71,WNW,295,10.0,14.0,62,0.48,,,-99.99,,2013-05-04 18:01:00,
2013-05-04 14:12:00,78.0,64.0,29.71,WNW,295,10.0,14.0,62,0.48,,,-99.99,,2013-05-04 18:12:00,
2013-05-04 14:22:00,79.0,65.0,29.70,West,270,9.0,14.0,62,0.48,,,-99.99,,2013-05-04 18:22:00,
2013-05-04 14:32:00,80.0,64.0,29.70,West,277,11.0,16.0,59,0.48,,,-99.99,,2013-05-04 18:32:00,
2013-05-04 14:42:00,80.0,64.0,29.70,West,277,11.0,16.0,59,0.48,,,-99.99,,2013-05-04 18:42:00,
2013-05-04 14:52:00,80.0,64.0,29.69,West,263,11.0,15.0,58,0.48,,,-99.99,,2013-05-04 18:52:00,
2013-05-04 15:01:00,80.0,64.0,29.69,WNW,300,11.0,15.0,58,0.48,,,-99.99,,2013-05-04 19:01:00,
2013-05-04 15:11:00,80.0,64.0,29.69,WNW,300,11.0,15.0,58,0.48,,,-99.99,,2013-05-04 19:11:00,
2013-05-04 15:21:00,79.0,63.0,29.68,West,277,15.0,22.0,59,0.48,,,-99.99,,2013-05-04 19:21:00,
2013-05-04 15:32:00,81.0,64.0,29.69,West,262,12.0,17.0,56,0.48,,,-99.99,,2013-05-04 19:32:00,
2013-05-04 15:42:00,81.0,64.0,29.69,West,262,12.0,17.0,56,0.48,,,-99.99,,2013-05-04 19:42:00,
2013-05-04 15:52:00,82.0,64.0,29.69,WSW,257,16.0,21.0,55,0.48,,,-99.99,,2013-05-04 19:52:00,
2013-05-04 16:02:00,81.0,63.0,29.69,West,262,14.0,20.0,54,0.48,,,-99.99,,2013-05-04 20:02:00,
2013-05-04 16:11:00,81.0,63.0,29.69,West,262,14.0,20.0,54,0.48,,,-99.99,,2013-05-04 20:11:00,
2013-05-04 16:22:00,82.0,63.0,29.69,WSW,242,15.0,20.0,53,0.48,,,-99.99,,2013-05-04 20:22:00,
2013-05-04 16:32:00,81.0,62.0,29.69,West,280,16.0,22.0,53,0.48,,,-99.99,,2013-05-04 20:32:00,
2013-05-04 16:42:00,81.0,62.0,29.69,West,280,16.0,22.0,53,0.48,,,-99.99,,2013-05-04 20:42:00,
2013-05-04 16:52:00,81.0,63.0,29.70,West,281,15.0,22.0,54,0.48,,,-99.99,,2013-05-04 20:52:00,
2013-05-04 17:02:00,81.0,63.0,29.70,West,281,15.0,22.0,54,0.48,,,-99.99,,2013-05-04 21:02:00,
2013-05-04 17:12:00,81.0,63.0,29.70,West,281,15.0,22.0,54,0.48,,,-99.99,,2013-05-04 21:12:00,
2013-05-04 17:22:00,80.0,63.0,29.70,West,269,12.0,18.0,56,0.48,,,-99.99,,2013-05-04 21:22:00,
2013-05-04 17:33:00,81.0,62.0,29.70,WNW,300,13.0,20.0,53,0.48,,,-99.99,,2013-05-04 21:33:00,
2013-05-04 17:43:00,81.0,62.0,29.70,WNW,300,13.0,20.0,53,0.48,,,-99.99,,2013-05-04 21:43:00,
2013-05-04 17:53:00,80.0,63.0,29.70,West,281,11.0,15.0,56,0.48,,,-99.99,,2013-05-04 21:53:00,
2013-05-04 18:03:00,80.0,63.0,29.70,West,281,11.0,15.0,56,0.48,,,-99.99,,2013-05-04 22:03:00,
2013-05-04 18:12:00,80.0,63.0,29.70,West,281,11.0,15.0,56,0.48,,,-99.99,,2013-05-04 22:12:00,
2013-05-04 18:22:00,80.0,63.0,29.70,West,281,11.0,15.0,56,0.48,,,-99.99,,2013-05-04 22:22:00,
2013-05-04 18:33:00,80.0,64.0,29.70,WNW,283,10.0,14.0,58,0.48,,,-99.99,,2013-05-04 22:33:00,
2013-05-04 18:43:00,80.0,64.0,29.70,WNW,283,10.0,14.0,58,0.48,,,-99.99,,2013-05-04 22:43:00,
2013-05-04 18:52:00,80.0,64.0,29.70,WNW,283,10.0,14.0,58,0.48,,,-99.99,,2013-05-04 22:52:00,
2013-05-04 19:02:00,80.0,64.0,29.70,WNW,285,11.0,15.0,59,0.48,,,-99.99,,2013-05-04 23:02:00,
2013-05-04 19:12:00,80.0,64.0,29.70,WNW,285,11.0,15.0,59,0.48,,,-99.99,,2013-05-04 23:12:00,
2013-05-04 19:20:00,79.0,67.0,29.70,WSW,253,10.0,13.0,66,0.48,,,-99.99,,2013-05-04 23:20:00,
2013-05-04 19:22:00,80.0,64.0,29.70,WNW,285,11.0,15.0,59,0.48,,,-99.99,,2013-05-04 23:22:00,
2013-05-04 19:32:00,80.0,64.0,29.70,WNW,285,11.0,15.0,59,0.48,,,-99.99,,2013-05-04 23:32:00,
2013-05-04 19:42:00,80.0,64.0,29.70,WNW,285,11.0,15.0,59,0.48,,,-99.99,,2013-05-04 23:42:00,
2013-05-04 19:52:00,79.0,67.0,29.70,WSW,253,10.0,13.0,66,0.48,,,-99.99,,2013-05-04 23:52:00,
2013-05-04 20:02:00,79.0,67.0,29.70,WSW,253,10.0,13.0,66,0.48,,,-99.99,,2013-05-05 00:02:00,
2013-05-04 20:11:00,79.0,67.0,29.70,WSW,253,10.0,13.0,66,0.48,,,-99.99,,2013-05-05 00:11:00,
2013-05-04 20:32:00,75.0,66.0,29.72,West,262,6.0,8.0,74,0.48,,,-99.99,,2013-05-05 00:32:00,
2013-05-04 20:42:00,75.0,66.0,29.72,West,262,6.0,8.0,74,0.48,,,-99.99,,2013-05-05 00:42:00,
2013-05-04 20:52:00,75.0,66.0,29.73,West,269,6.0,9.0,74,0.48,,,-99.99,,2013-05-05 00:52:00,
2013-05-04 21:01:00,74.0,66.0,29.73,WSW,243,6.0,8.0,76,0.48,,,-99.99,,2013-05-05 01:01:00,
2013-05-04 21:11:00,73.0,65.0,29.74,WSW,250,5.0,7.0,77,0.48,,,-99.99,,2013-05-05 01:11:00,
2013-05-04 21:21:00,73.0,65.0,29.74,WSW,250,5.0,7.0,77,0.48,,,-99.99,,2013-05-05 01:21:00,
2013-05-04 21:32:00,72.0,65.0,29.75,WSW,250,5.0,6.0,79,0.48,,,-99.99,,2013-05-05 01:32:00,
2013-05-04 21:42:00,72.0,65.0,29.75,WSW,250,5.0,6.0,79,0.48,,,-99.99,,2013-05-05 01:42:00,
2013-05-04 21:52:00,72.0,65.0,29.75,WSW,253,5.0,7.0,79,0.48,,,-99.99,,2013-05-05 01:52:00,
2013-05-04 22:02:00,72.0,65.0,29.75,WSW,253,5.0,7.0,79,0.48,,,-99.99,,2013-05-05 02:02:00,
2013-05-04 22:11:00,72.0,65.0,29.75,WSW,253,5.0,7.0,79,0.48,,,-99.99,,2013-05-05 02:11:00,
2013-05-04 22:22:00,72.0,65.0,29.75,WSW,253,5.0,7.0,79,0.48,,,-99.99,,2013-05-05 02:22:00,
2013-05-04 22:52:00,70.0,65.0,29.79,SW,232,5.0,7.0,83,0.48,,,-99.99,,2013-05-05 02:52:00,
2013-05-04 23:01:00,71.0,67.0,29.80,SSW,200,4.0,6.0,87,0.48,,,-99.99,,2013-05-05 03:01:00,
2013-05-04 23:11:00,71.0,67.0,29.80,SSW,200,4.0,6.0,87,0.48,,,-99.99,,2013-05-05 03:11:00,
2013-05-04 23:22:00,71.0,67.0,29.80,SSW,200,4.0,6.0,87,0.48,,,-99.99,,2013-05-05 03:22:00,
2013-05-04 23:33:00,71.0,67.0,29.81,SW,229,3.0,4.0,87,0.48,,,-99.99,,2013-05-05 03:33:00,
2013-05-04 23:42:00,71.0,67.0,29.81,SW,229,3.0,4.0,87,0.48,,,-99.99,,2013-05-05 03:42:00,
2013-05-04 23:53:00,71.0,67.0,29.81,SW,232,3.0,5.0,87,0.48,,,-99.99,,2013-05-05 03:53:00,